createdAt,value
2022-11-13T00:01:16.452Z,12.93
2022-11-13T00:03:44.721Z,12.94
2022-11-13T00:06:16.079Z,12.94
2022-11-13T00:08:44.105Z,12.94
2022-11-13T00:11:15.073Z,12.96
2022-11-13T00:13:44.087Z,12.97
2022-11-13T00:16:14.470Z,12.99
2022-11-13T00:18:43.866Z,12.99
2022-11-13T00:21:15.187Z,13.00
2022-11-13T00:23:43.479Z,13.00
2022-11-13T00:26:15.799Z,13.02
2022-11-13T00:28:44.520Z,13.02
2022-11-13T00:31:14.463Z,13.00
2022-11-13T00:34:09.206Z,12.99
2022-11-13T00:36:30.987Z,12.96
2022-11-13T00:38:58.953Z,12.94
2022-11-13T00:41:28.406Z,12.93
2022-11-13T00:43:56.445Z,12.91
2022-11-13T00:46:24.398Z,12.89
2022-11-13T00:48:52.485Z,12.87
2022-11-13T00:51:20.467Z,12.85
2022-11-13T00:53:49.125Z,12.84
2022-11-13T00:56:17.114Z,12.83
2022-11-13T00:58:46.542Z,12.81
2022-11-13T01:01:17.537Z,12.79
2022-11-13T01:03:46.018Z,12.78
2022-11-13T01:06:17.861Z,12.77
2022-11-13T01:08:45.842Z,12.75
2022-11-13T01:11:15.566Z,12.77
2022-11-13T01:13:47.650Z,12.77
2022-11-13T01:16:17.318Z,12.77
2022-11-13T01:18:45.598Z,12.82
2022-11-13T01:21:15.621Z,12.85
2022-11-13T01:23:43.709Z,12.88
2022-11-13T01:26:14.236Z,12.90
2022-11-13T01:28:43.781Z,12.92
2022-11-13T01:31:16.740Z,12.92
2022-11-13T01:33:45.147Z,12.95
2022-11-13T01:36:15.220Z,12.97
2022-11-13T01:38:43.641Z,12.98
2022-11-13T01:41:22.867Z,12.99
2022-11-13T01:43:52.108Z,13.01
2022-11-13T01:46:26.861Z,13.01
2022-11-13T01:49:01.084Z,13.02
2022-11-13T01:51:33.347Z,13.03
2022-11-13T01:54:04.075Z,13.03
2022-11-13T01:56:32.538Z,13.03
2022-11-13T01:59:07.640Z,13.03
2022-11-13T02:01:37.200Z,13.03
2022-11-13T02:04:05.459Z,13.02
2022-11-13T02:06:41.448Z,13.04
2022-11-13T02:09:11.099Z,13.05
2022-11-13T02:11:39.856Z,13.05
2022-11-13T02:14:10.504Z,13.07
2022-11-13T02:16:43.009Z,13.10
2022-11-13T02:19:18.257Z,13.11
2022-11-13T02:21:52.678Z,13.11
2022-11-13T02:24:26.741Z,13.11
2022-11-13T02:26:57.777Z,13.11
2022-11-13T02:29:25.831Z,13.11
2022-11-13T02:31:53.810Z,13.13
2022-11-13T02:34:21.884Z,13.13
2022-11-13T02:36:49.978Z,13.13
2022-11-13T02:39:17.950Z,13.15
2022-11-13T02:41:47.323Z,13.13
2022-11-13T02:44:15.314Z,13.16
2022-11-13T02:46:43.296Z,13.17
2022-11-13T02:49:11.324Z,13.17
2022-11-13T02:51:39.569Z,13.18
2022-11-13T02:54:07.815Z,13.20
2022-11-13T02:56:35.925Z,13.22
2022-11-13T02:59:05.353Z,13.22
2022-11-13T03:01:33.407Z,13.22
2022-11-13T03:04:01.819Z,13.21
2022-11-13T03:06:29.804Z,13.21
2022-11-13T03:08:57.832Z,13.21
2022-11-13T03:11:25.853Z,13.23
2022-11-13T03:13:54.693Z,13.24
2022-11-13T03:16:24.112Z,13.24
2022-11-13T03:18:52.124Z,13.27
2022-11-13T03:21:20.076Z,13.27
2022-11-13T03:23:48.043Z,13.29
2022-11-13T03:26:18.174Z,13.29
2022-11-13T03:28:49.047Z,13.31
2022-11-13T03:31:17.078Z,13.33
2022-11-13T03:33:46.698Z,13.35
2022-11-13T03:36:14.731Z,13.34
2022-11-13T03:38:42.670Z,13.35
2022-11-13T03:41:10.620Z,13.36
2022-11-13T03:43:38.605Z,13.35
2022-11-13T03:46:06.808Z,13.36
2022-11-13T03:48:34.817Z,13.37
2022-11-13T03:51:04.524Z,13.38
2022-11-13T03:53:32.760Z,13.38
2022-11-13T03:56:01.085Z,13.39
2022-11-13T03:58:29.313Z,13.40
2022-11-13T04:00:58.223Z,13.41
2022-11-13T04:03:26.234Z,13.41
2022-11-13T04:05:54.201Z,13.44
2022-11-13T04:08:23.635Z,13.43
2022-11-13T04:10:51.624Z,13.44
2022-11-13T04:13:19.547Z,13.45
2022-11-13T04:15:48.526Z,13.47
2022-11-13T04:18:16.498Z,13.47
2022-11-13T04:20:44.453Z,13.46
2022-11-13T04:23:14.343Z,13.47
2022-11-13T04:25:43.676Z,13.46
2022-11-13T04:28:12.145Z,13.47
2022-11-13T04:30:40.173Z,13.46
2022-11-13T04:33:08.127Z,13.45
2022-11-13T04:35:36.174Z,13.45
2022-11-13T04:38:04.243Z,13.46
2022-11-13T04:40:32.222Z,13.44
2022-11-13T04:43:00.558Z,13.43
2022-11-13T04:45:28.631Z,13.45
2022-11-13T04:47:56.871Z,13.44
2022-11-13T04:50:25.062Z,13.43
2022-11-13T04:52:53.054Z,13.43
2022-11-13T04:55:21.221Z,13.44
2022-11-13T04:57:51.589Z,13.45
2022-11-13T05:00:21.298Z,13.47
2022-11-13T05:02:49.219Z,13.49
2022-11-13T05:05:17.469Z,13.50
2022-11-13T05:07:45.408Z,13.48
2022-11-13T05:10:13.826Z,13.49
2022-11-13T05:12:41.780Z,13.52
2022-11-13T05:15:10.476Z,13.53
2022-11-13T05:17:39.879Z,13.51
2022-11-13T05:20:09.075Z,13.50
2022-11-13T05:22:37.032Z,13.48
2022-11-13T05:25:05.504Z,13.48
2022-11-13T05:27:35.248Z,13.47
2022-11-13T05:30:03.220Z,13.47
2022-11-13T05:32:31.188Z,13.49
2022-11-13T05:35:00.516Z,13.50
2022-11-13T05:37:29.841Z,13.48
2022-11-13T05:39:57.771Z,13.47
2022-11-13T05:42:26.156Z,13.47
2022-11-13T05:44:54.099Z,13.47
2022-11-13T05:47:22.107Z,13.47
2022-11-13T05:49:50.059Z,13.46
2022-11-13T05:52:19.405Z,13.46
2022-11-13T05:54:47.328Z,13.45
2022-11-13T05:57:15.270Z,13.44
2022-11-13T05:59:43.259Z,13.43
2022-11-13T06:02:11.253Z,13.45
2022-11-13T06:04:39.239Z,13.47
2022-11-13T06:07:07.252Z,13.49
2022-11-13T06:09:36.647Z,13.51
2022-11-13T06:12:04.733Z,13.55
2022-11-13T06:14:32.766Z,13.56
2022-11-13T06:17:00.722Z,13.58
2022-11-13T06:19:28.794Z,13.60
2022-11-13T06:21:56.797Z,13.60
2022-11-13T06:24:24.948Z,13.60
2022-11-13T06:26:54.550Z,13.59
2022-11-13T06:29:22.512Z,13.58
2022-11-13T06:31:50.479Z,13.57
2022-11-13T06:34:18.451Z,13.56
2022-11-13T06:36:46.436Z,13.56
2022-11-13T06:39:14.504Z,13.57
2022-11-13T06:41:42.522Z,13.57
2022-11-13T06:44:11.918Z,13.58
2022-11-13T06:46:39.903Z,13.57
2022-11-13T06:49:07.955Z,13.59
2022-11-13T06:51:35.930Z,13.58
2022-11-13T06:54:03.931Z,13.58
2022-11-13T06:56:31.906Z,13.59
2022-11-13T06:58:59.846Z,13.58
2022-11-13T07:01:29.335Z,13.61
2022-11-13T07:03:57.364Z,13.64
2022-11-13T07:06:26.132Z,13.65
2022-11-13T07:08:54.453Z,13.65
2022-11-13T07:11:24.717Z,13.67
2022-11-13T07:13:52.720Z,13.64
2022-11-13T07:16:20.898Z,13.65
2022-11-13T07:18:54.271Z,13.62
2022-11-13T07:21:23.284Z,13.61
2022-11-13T07:23:51.811Z,13.61
2022-11-13T07:26:20.373Z,13.61
2022-11-13T07:28:49.241Z,13.62
2022-11-13T07:31:18.453Z,13.62
2022-11-13T07:33:49.143Z,13.64
2022-11-13T07:36:18.572Z,13.65
2022-11-13T07:38:46.614Z,13.65
2022-11-13T07:41:14.553Z,13.68
2022-11-13T07:43:42.543Z,13.69
2022-11-13T07:46:11.260Z,13.70
2022-11-13T07:48:39.300Z,13.72
2022-11-13T07:51:07.501Z,13.74
2022-11-13T07:53:39.090Z,13.77
2022-11-13T07:56:08.170Z,13.76
2022-11-13T07:58:36.177Z,13.77
2022-11-13T08:01:05.258Z,13.78
2022-11-13T08:03:33.743Z,13.81
2022-11-13T08:06:03.393Z,13.83
2022-11-13T08:08:31.821Z,13.85
2022-11-13T08:11:04.992Z,13.87
2022-11-13T08:13:34.279Z,13.89
2022-11-13T08:16:02.900Z,13.91
2022-11-13T08:18:31.976Z,13.94
2022-11-13T08:21:02.599Z,13.98
2022-11-13T08:23:30.619Z,14.01
2022-11-13T08:25:58.692Z,14.06
2022-11-13T08:28:28.355Z,14.09
2022-11-13T08:30:56.594Z,14.11
2022-11-13T08:33:24.574Z,14.16
2022-11-13T08:35:56.363Z,14.17
2022-11-13T08:38:24.646Z,14.23
2022-11-13T08:40:53.169Z,14.28
2022-11-13T08:43:21.144Z,14.32
2022-11-13T08:45:50.498Z,14.36
2022-11-13T08:48:19.018Z,14.43
2022-11-13T08:50:47.043Z,14.49
2022-11-13T08:53:14.990Z,14.57
2022-11-13T08:55:42.989Z,14.64
2022-11-13T08:58:11.011Z,14.70
2022-11-13T09:00:39.074Z,14.75
2022-11-13T09:03:11.688Z,14.75
2022-11-13T09:05:39.860Z,14.77
2022-11-13T09:08:07.883Z,14.79
2022-11-13T09:10:35.833Z,14.81
2022-11-13T09:13:05.352Z,14.83
2022-11-13T09:15:33.753Z,14.86
2022-11-13T09:18:03.070Z,14.88
2022-11-13T09:20:33.974Z,14.92
2022-11-13T09:23:03.889Z,14.96
2022-11-13T09:25:37.036Z,15.01
2022-11-13T09:28:06.973Z,15.06
2022-11-13T09:30:35.173Z,15.12
2022-11-13T09:33:03.574Z,15.15
2022-11-13T09:35:37.347Z,15.16
2022-11-13T09:38:11.098Z,15.19
2022-11-13T09:40:46.340Z,15.22
2022-11-13T09:43:26.600Z,15.23
2022-11-13T09:45:59.471Z,15.25
2022-11-13T09:48:33.325Z,15.29
2022-11-13T09:51:07.532Z,15.30
2022-11-13T09:53:37.947Z,15.31
2022-11-13T09:56:25.829Z,15.32
2022-11-13T09:59:01.816Z,15.33
2022-11-13T10:01:35.550Z,15.35
2022-11-13T10:04:13.228Z,15.37
2022-11-13T10:07:02.231Z,15.39
2022-11-13T10:09:38.417Z,15.40
2022-11-13T10:12:09.652Z,15.40
2022-11-13T10:14:44.161Z,15.41
2022-11-13T10:17:19.410Z,15.43
2022-11-13T10:19:55.424Z,15.47
2022-11-13T10:22:33.324Z,15.54
2022-11-13T10:25:11.698Z,15.56
2022-11-13T10:27:40.032Z,15.60
2022-11-13T10:30:14.772Z,15.63
2022-11-13T10:32:42.983Z,15.64
2022-11-13T10:35:27.476Z,15.66
2022-11-13T10:38:07.744Z,15.67
2022-11-13T10:40:38.840Z,15.69
2022-11-13T10:43:14.412Z,15.71
2022-11-13T10:45:43.138Z,15.73
2022-11-13T10:48:21.413Z,15.75
2022-11-13T10:50:55.525Z,15.75
2022-11-13T10:53:27.699Z,15.80
2022-11-13T10:55:58.972Z,15.83
2022-11-13T10:58:27.752Z,15.87
2022-11-13T11:00:56.112Z,15.87
2022-11-13T11:03:27.105Z,15.90
2022-11-13T11:05:56.938Z,15.92
2022-11-13T11:08:32.376Z,15.96
2022-11-13T11:11:20.600Z,16.02
2022-11-13T11:13:50.113Z,16.09
2022-11-13T11:16:22.759Z,16.16
2022-11-13T11:18:55.008Z,16.20
2022-11-13T11:21:26.596Z,16.25
2022-11-13T11:24:01.392Z,16.28
2022-11-13T11:26:33.763Z,16.30
2022-11-13T11:29:15.805Z,16.31
2022-11-13T11:31:51.717Z,16.34
2022-11-13T11:34:26.338Z,16.34
2022-11-13T11:37:01.087Z,16.35
2022-11-13T11:39:39.593Z,16.34
2022-11-13T11:42:20.768Z,16.32
2022-11-13T11:45:05.221Z,16.34
2022-11-13T11:47:35.042Z,16.36
2022-11-13T11:50:03.953Z,16.39
2022-11-13T11:52:46.102Z,16.41
2022-11-13T11:55:31.361Z,16.44
2022-11-13T11:58:05.210Z,16.46
2022-11-13T12:00:34.294Z,16.47
2022-11-13T12:03:34.515Z,16.52
2022-11-13T12:06:13.096Z,16.54
2022-11-13T12:08:47.966Z,16.56
2022-11-13T12:11:23.392Z,16.60
2022-11-13T12:13:57.819Z,16.63
2022-11-13T12:16:37.153Z,16.66
2022-11-13T12:19:12.169Z,16.71
2022-11-13T12:21:52.759Z,16.74
2022-11-13T12:24:42.888Z,16.76
2022-11-13T12:27:25.748Z,16.82
2022-11-13T12:30:04.076Z,16.88
2022-11-13T12:32:43.728Z,16.92
2022-11-13T12:35:16.984Z,16.93
2022-11-13T12:37:52.663Z,16.94
2022-11-13T12:40:29.512Z,16.96
2022-11-13T12:43:09.323Z,16.97
2022-11-13T12:45:51.467Z,16.96
2022-11-13T12:48:28.580Z,16.92
2022-11-13T12:51:01.656Z,16.91
2022-11-13T12:53:31.454Z,16.88
2022-11-13T12:56:01.096Z,16.84
2022-11-13T12:58:33.038Z,16.83
2022-11-13T13:01:06.863Z,16.84
2022-11-13T13:04:01.105Z,16.86
2022-11-13T13:06:52.120Z,16.89
2022-11-13T13:09:31.254Z,16.98
2022-11-13T13:12:07.426Z,17.12
2022-11-13T13:15:00.191Z,17.29
2022-11-13T13:17:28.536Z,17.44
2022-11-13T13:20:01.076Z,17.53
2022-11-13T13:22:32.099Z,17.53
2022-11-13T13:25:02.509Z,17.52
2022-11-13T13:27:34.139Z,17.53
2022-11-13T13:30:17.007Z,17.51
2022-11-13T13:32:55.200Z,17.53
2022-11-13T13:35:27.802Z,17.47
2022-11-13T13:38:01.633Z,17.45
2022-11-13T13:40:39.928Z,17.42
2022-11-13T13:43:29.562Z,17.45
2022-11-13T13:46:10.503Z,17.46
2022-11-13T13:48:41.061Z,17.47
2022-11-13T13:51:19.479Z,17.46
2022-11-13T13:53:49.305Z,17.47
2022-11-13T13:56:21.203Z,17.46
2022-11-13T13:58:50.149Z,17.45
2022-11-13T14:01:30.938Z,17.43
2022-11-13T14:04:06.628Z,17.37
2022-11-13T14:06:34.921Z,17.29
2022-11-13T14:09:09.667Z,17.21
2022-11-13T14:11:37.613Z,17.20
2022-11-13T14:14:09.939Z,17.14
2022-11-13T14:16:49.699Z,17.07
2022-11-13T14:19:18.135Z,17.01
2022-11-13T14:21:48.733Z,16.95
2022-11-13T14:24:22.684Z,16.90
2022-11-13T14:26:52.627Z,16.85
2022-11-13T14:29:33.670Z,16.80
2022-11-13T14:32:11.046Z,16.76
2022-11-13T14:34:39.363Z,16.73
2022-11-13T14:37:19.547Z,16.77
2022-11-13T14:39:50.225Z,16.81
2022-11-13T14:42:20.815Z,16.83
2022-11-13T14:44:49.411Z,16.84
2022-11-13T14:47:28.532Z,16.83
2022-11-13T14:49:56.556Z,16.82
2022-11-13T14:52:26.836Z,16.81
2022-11-13T14:55:14.956Z,16.80
2022-11-13T14:57:49.219Z,16.84
2022-11-13T15:00:18.198Z,16.87
2022-11-13T15:02:47.535Z,16.88
2022-11-13T15:05:15.542Z,16.93
2022-11-13T15:07:46.004Z,16.95
2022-11-13T15:10:17.268Z,16.98
2022-11-13T15:12:45.214Z,16.98
2022-11-13T15:15:16.814Z,16.96
2022-11-13T15:17:45.732Z,16.94
2022-11-13T15:20:22.555Z,16.88
2022-11-13T15:22:52.256Z,16.84
2022-11-13T15:25:22.202Z,16.82
2022-11-13T15:27:50.403Z,16.82
2022-11-13T15:30:19.561Z,16.82
2022-11-13T15:32:49.236Z,16.83
2022-11-13T15:35:20.047Z,16.81
2022-11-13T15:37:48.086Z,16.78
2022-11-13T15:40:17.704Z,16.75
2022-11-13T15:42:46.656Z,16.70
2022-11-13T15:45:16.367Z,16.66
2022-11-13T15:47:44.638Z,16.62
2022-11-13T15:50:14.493Z,16.57
2022-11-13T15:52:48.411Z,16.50
2022-11-13T15:55:25.152Z,16.43
2022-11-13T15:57:53.336Z,16.36
2022-11-13T16:00:25.051Z,16.30
2022-11-13T16:02:55.563Z,16.25
2022-11-13T16:05:25.736Z,16.20
2022-11-13T16:07:55.759Z,16.14
2022-11-13T16:10:25.222Z,16.10
2022-11-13T16:12:54.057Z,16.07
2022-11-13T16:15:22.248Z,16.02
2022-11-13T16:17:53.101Z,15.96
2022-11-13T16:20:21.123Z,15.93
2022-11-13T16:22:49.124Z,15.88
2022-11-13T16:25:19.993Z,15.82
2022-11-13T16:27:48.546Z,15.78
2022-11-13T16:30:20.241Z,15.74
2022-11-13T16:32:48.701Z,15.69
2022-11-13T16:35:18.257Z,15.65
2022-11-13T16:37:46.421Z,15.60
2022-11-13T16:40:21.783Z,15.55
2022-11-13T16:42:49.940Z,15.49
2022-11-13T16:45:17.965Z,15.43
2022-11-13T16:47:46.656Z,15.38
2022-11-13T16:50:16.797Z,15.33
2022-11-13T16:52:44.875Z,15.29
2022-11-13T16:55:13.265Z,15.26
2022-11-13T16:57:42.734Z,15.23
2022-11-13T17:00:16.179Z,15.19
2022-11-13T17:02:44.976Z,15.15
2022-11-13T17:05:14.765Z,15.13
2022-11-13T17:07:42.844Z,15.11
2022-11-13T17:13:03.471Z,15.05
2022-11-13T17:15:32.873Z,15.03
2022-11-13T17:18:00.843Z,15.01
2022-11-13T17:20:28.831Z,15.00
2022-11-13T17:22:56.901Z,14.97
2022-11-13T17:25:26.874Z,14.95
2022-11-13T17:27:55.438Z,14.93
2022-11-13T17:30:25.182Z,14.91
2022-11-13T17:32:53.184Z,14.90
2022-11-13T17:35:21.225Z,14.89
2022-11-13T17:37:49.179Z,14.88
2022-11-13T17:40:17.724Z,14.87
2022-11-13T17:42:48.043Z,14.85
2022-11-13T17:45:16.576Z,14.85
2022-11-13T17:47:46.050Z,14.84
2022-11-13T17:50:15.107Z,14.83
2022-11-13T17:52:43.148Z,14.82
2022-11-13T17:55:13.102Z,14.83
2022-11-13T17:57:41.091Z,14.83
2022-11-13T18:00:10.463Z,14.83
2022-11-13T18:02:39.548Z,14.83
2022-11-13T18:05:10.065Z,14.83
2022-11-13T18:07:38.472Z,14.83
2022-11-13T18:10:07.388Z,14.85
2022-11-13T18:12:35.323Z,14.88
2022-11-13T18:15:03.397Z,14.89
2022-11-13T18:17:31.396Z,14.91
2022-11-13T18:20:01.927Z,14.93
2022-11-13T18:22:31.897Z,14.94
2022-11-13T18:25:01.536Z,14.94
2022-11-13T18:27:29.849Z,14.95
2022-11-13T18:29:57.888Z,14.96
2022-11-13T18:32:25.894Z,14.96
2022-11-13T18:34:54.340Z,14.99
2022-11-13T18:37:22.360Z,14.99
2022-11-13T18:39:51.910Z,14.99
2022-11-13T18:42:20.043Z,14.99
2022-11-13T18:44:48.224Z,14.99
2022-11-13T18:47:16.206Z,14.99
2022-11-13T18:49:44.224Z,14.99
2022-11-13T18:52:12.513Z,14.98
2022-11-13T18:54:40.524Z,14.99
2022-11-13T18:57:10.115Z,14.98
2022-11-13T18:59:38.086Z,14.97
2022-11-13T19:02:06.228Z,14.96
2022-11-13T19:04:36.356Z,14.94
2022-11-13T19:07:04.378Z,14.93
2022-11-13T19:09:32.410Z,14.93
2022-11-13T19:12:00.362Z,14.93
2022-11-13T19:14:29.762Z,14.93
2022-11-13T19:16:57.805Z,14.94
2022-11-13T19:19:25.821Z,14.94
2022-11-13T19:21:53.826Z,14.94
2022-11-13T19:24:21.784Z,14.95
2022-11-13T19:26:49.750Z,14.95
2022-11-13T19:29:18.267Z,14.95
2022-11-13T19:31:48.796Z,14.94
2022-11-13T19:34:16.810Z,14.94
2022-11-13T19:36:46.475Z,14.91
2022-11-13T19:39:14.634Z,14.91
2022-11-13T19:41:42.657Z,14.89
2022-11-13T19:44:11.272Z,14.88
2022-11-13T19:46:39.367Z,14.87
2022-11-13T19:49:08.758Z,14.83
2022-11-13T19:51:38.155Z,14.81
2022-11-13T19:54:06.243Z,14.79
2022-11-13T19:56:34.306Z,14.78
2022-11-13T19:59:02.321Z,14.75
2022-11-13T20:01:32.167Z,14.73
2022-11-13T20:04:01.895Z,14.71
2022-11-13T20:06:33.467Z,14.68
2022-11-13T20:09:03.441Z,14.66
2022-11-13T20:11:31.518Z,14.64
2022-11-13T20:13:59.628Z,14.61
2022-11-13T20:16:28.006Z,14.59
2022-11-13T20:18:58.276Z,14.59
2022-11-13T20:21:26.650Z,14.56
2022-11-13T20:23:57.576Z,14.56
2022-11-13T20:26:26.023Z,14.52
2022-11-13T20:28:54.037Z,14.52
2022-11-13T20:31:23.948Z,14.50
2022-11-13T20:33:53.577Z,14.49
2022-11-13T20:36:22.411Z,14.48
2022-11-13T20:38:51.722Z,14.47
2022-11-13T20:41:21.697Z,14.44
2022-11-13T20:43:49.922Z,14.43
2022-11-13T20:46:20.931Z,14.42
2022-11-13T20:48:49.053Z,14.41
2022-11-13T20:51:19.485Z,14.40
2022-11-13T20:53:47.995Z,14.39
2022-11-13T20:56:16.481Z,14.38
2022-11-13T20:58:46.169Z,14.37
2022-11-13T21:01:16.306Z,14.36
2022-11-13T21:03:46.314Z,14.36
2022-11-13T21:06:16.223Z,14.37
2022-11-13T21:08:44.651Z,14.37
2022-11-13T21:11:16.147Z,14.36
2022-11-13T21:13:45.863Z,14.34
2022-11-13T21:16:13.847Z,14.34
2022-11-13T21:18:42.150Z,14.33
2022-11-13T21:21:12.090Z,14.32
2022-11-13T21:23:40.057Z,14.32
2022-11-13T21:26:09.744Z,14.30
2022-11-13T21:28:37.863Z,14.31
2022-11-13T21:31:09.617Z,14.30
2022-11-13T21:33:38.812Z,14.29
2022-11-13T21:36:08.247Z,14.28
2022-11-13T21:38:36.284Z,14.26
2022-11-13T21:41:25.870Z,14.28
2022-11-13T21:43:58.577Z,14.26
2022-11-13T21:46:30.645Z,14.25
2022-11-13T21:49:00.515Z,14.24
2022-11-13T21:51:28.499Z,14.23
2022-11-13T21:53:57.024Z,14.22
2022-11-13T21:56:26.196Z,14.22
2022-11-13T21:58:55.848Z,14.20
2022-11-13T22:01:24.420Z,14.20
2022-11-13T22:03:54.707Z,14.20
2022-11-13T22:06:24.626Z,14.19
2022-11-13T22:08:57.387Z,14.20
2022-11-13T22:11:26.565Z,14.17
2022-11-13T22:13:54.685Z,14.18
2022-11-13T22:16:23.699Z,14.17
2022-11-13T22:18:56.040Z,14.18
2022-11-13T22:21:25.365Z,14.17
2022-11-13T22:23:53.449Z,14.16
2022-11-13T22:26:22.644Z,14.16
2022-11-13T22:28:51.270Z,14.15
2022-11-13T22:31:22.195Z,14.13
2022-11-13T22:33:54.578Z,14.13
2022-11-13T22:36:27.922Z,14.09
2022-11-13T22:38:56.933Z,14.09
2022-11-13T22:41:27.727Z,14.07
2022-11-13T22:43:59.736Z,14.06
2022-11-13T22:46:29.528Z,14.05
2022-11-13T22:49:00.168Z,14.04
2022-11-13T22:51:31.279Z,14.03
2022-11-13T22:54:01.076Z,14.02
2022-11-13T22:56:31.251Z,14.02
2022-11-13T22:59:05.330Z,14.01
2022-11-13T23:01:34.995Z,14.02
2022-11-13T23:04:05.327Z,14.01
2022-11-13T23:06:36.493Z,14.00
2022-11-13T23:09:05.485Z,14.01
2022-11-13T23:11:35.370Z,13.99
2022-11-13T23:14:05.712Z,13.98
2022-11-13T23:16:34.557Z,13.98
2022-11-13T23:19:03.896Z,13.96
2022-11-13T23:21:32.272Z,13.94
2022-11-13T23:24:01.709Z,13.92
2022-11-13T23:26:29.690Z,13.92
2022-11-13T23:28:58.364Z,13.89
2022-11-13T23:31:26.407Z,13.89
2022-11-13T23:33:54.393Z,13.86
2022-11-13T23:36:22.391Z,13.86
2022-11-13T23:38:50.396Z,13.83
2022-11-13T23:41:20.034Z,13.83
2022-11-13T23:44:07.729Z,13.80
2022-11-13T23:46:35.929Z,13.79
2022-11-13T23:49:03.904Z,13.79
2022-11-13T23:51:31.878Z,13.78
2022-11-13T23:54:00.074Z,13.77
2022-11-13T23:56:29.469Z,13.76
2022-11-13T23:58:57.414Z,13.75
